sensor_id;sensor_type;location;lat;lon;timestamp;pressure;altitude;pressure_sealevel;temperature;humidity
9009;BME280;62813;51.424;6.762;2023-01-04T00:01:14;101923.78;;;7.92;76.84
9009;BME280;62813;51.424;6.762;2023-01-04T00:03:41;101914.25;;;7.95;76.50
9009;BME280;62813;51.424;6.762;2023-01-04T00:06:11;101919.38;;;8.00;76.58
9009;BME280;62813;51.424;6.762;2023-01-04T00:08:38;101909.84;;;8.02;76.43
9009;BME280;62813;51.424;6.762;2023-01-04T00:11:13;101902.97;;;8.04;76.67
9009;BME280;62813;51.424;6.762;2023-01-04T00:13:40;101891.75;;;8.05;76.22
9009;BME280;62813;51.424;6.762;2023-01-04T00:16:10;101904.66;;;8.05;76.35
9009;BME280;62813;51.424;6.762;2023-01-04T00:18:38;101900.31;;;8.07;76.33
9009;BME280;62813;51.424;6.762;2023-01-04T00:23:38;101883.06;;;8.09;76.36
9009;BME280;62813;51.424;6.762;2023-01-04T00:26:10;101894.28;;;8.08;76.06
9009;BME280;62813;51.424;6.762;2023-01-04T00:28:37;101885.63;;;8.09;76.78
9009;BME280;62813;51.424;6.762;2023-01-04T00:31:05;101878.75;;;8.09;77.26
9009;BME280;62813;51.424;6.762;2023-01-04T00:33:32;101876.19;;;8.08;78.07
9009;BME280;62813;51.424;6.762;2023-01-04T00:36:07;101868.41;;;8.11;78.14
9009;BME280;62813;51.424;6.762;2023-01-04T00:38:34;101870.13;;;8.09;78.94
9009;BME280;62813;51.424;6.762;2023-01-04T00:41:03;101866.78;;;8.04;79.34
9009;BME280;62813;51.424;6.762;2023-01-04T00:43:30;101862.44;;;8.03;79.48
9009;BME280;62813;51.424;6.762;2023-01-04T00:45:57;101856.44;;;8.01;80.44
9009;BME280;62813;51.424;6.762;2023-01-04T00:48:24;101852.97;;;8.02;80.51
9009;BME280;62813;51.424;6.762;2023-01-04T00:50:51;101843.50;;;8.01;81.47
9009;BME280;62813;51.424;6.762;2023-01-04T00:53:18;101832.34;;;7.99;82.00
9009;BME280;62813;51.424;6.762;2023-01-04T00:55:45;101828.09;;;7.96;82.23
9009;BME280;62813;51.424;6.762;2023-01-04T00:58:12;101829.78;;;7.96;82.58
9009;BME280;62813;51.424;6.762;2023-01-04T01:00:39;101820.31;;;7.95;83.08
9009;BME280;62813;51.424;6.762;2023-01-04T01:03:06;101823.78;;;7.94;83.86
9009;BME280;62813;51.424;6.762;2023-01-04T01:05:34;101811.75;;;7.93;84.02
9009;BME280;62813;51.424;6.762;2023-01-04T01:08:02;101807.47;;;7.90;84.32
9009;BME280;62813;51.424;6.762;2023-01-04T01:10:52;101801.44;;;7.90;85.09
9009;BME280;62813;51.424;6.762;2023-01-04T01:13:21;101798.00;;;7.91;85.42
9009;BME280;62813;51.424;6.762;2023-01-04T01:15:48;101790.25;;;7.89;85.45
9009;BME280;62813;51.424;6.762;2023-01-04T01:18:14;101791.13;;;7.90;85.97
9009;BME280;62813;51.424;6.762;2023-01-04T01:20:45;101784.19;;;7.92;86.33
9009;BME280;62813;51.424;6.762;2023-01-04T01:23:13;101785.09;;;7.88;86.77
9009;BME280;62813;51.424;6.762;2023-01-04T01:25:40;101775.59;;;7.88;86.67
9009;BME280;62813;51.424;6.762;2023-01-04T01:28:07;101774.78;;;7.86;87.29
9009;BME280;62813;51.424;6.762;2023-01-04T01:30:38;101768.75;;;7.85;87.61
9009;BME280;62813;51.424;6.762;2023-01-04T01:33:06;101763.59;;;7.85;87.60
9009;BME280;62813;51.424;6.762;2023-01-04T01:35:34;101754.13;;;7.84;87.70
9009;BME280;62813;51.424;6.762;2023-01-04T01:38:01;101763.59;;;7.85;88.33
9009;BME280;62813;51.424;6.762;2023-01-04T01:40:28;101741.19;;;7.84;88.49
9009;BME280;62813;51.424;6.762;2023-01-04T01:42:58;101746.38;;;7.84;88.80
9009;BME280;62813;51.424;6.762;2023-01-04T01:47:58;101747.19;;;7.86;88.72
9009;BME280;62813;51.424;6.762;2023-01-04T01:50:32;101753.19;;;7.89;88.92
9009;BME280;62813;51.424;6.762;2023-01-04T01:53:01;101755.78;;;7.89;89.29
9009;BME280;62813;51.424;6.762;2023-01-04T01:55:32;101762.69;;;7.86;89.59
9009;BME280;62813;51.424;6.762;2023-01-04T01:57:59;101757.53;;;7.86;90.09
9009;BME280;62813;51.424;6.762;2023-01-04T02:00:27;101761.81;;;7.88;90.39
9009;BME280;62813;51.424;6.762;2023-01-04T02:03:15;101760.13;;;7.86;90.64
9009;BME280;62813;51.424;6.762;2023-01-04T02:05:44;101748.13;;;7.82;91.49
9009;BME280;62813;51.424;6.762;2023-01-04T02:08:13;101753.31;;;7.82;91.80
9009;BME280;62813;51.424;6.762;2023-01-04T02:10:40;101752.44;;;7.80;92.32
9009;BME280;62813;51.424;6.762;2023-01-04T02:13:11;101752.44;;;7.82;92.66
9009;BME280;62813;51.424;6.762;2023-01-04T02:18:58;101750.72;;;7.81;93.26
9009;BME280;62813;51.424;6.762;2023-01-04T02:21:50;101738.69;;;7.78;93.40
9009;BME280;62813;51.424;6.762;2023-01-04T02:27:48;101729.19;;;7.80;94.03
9009;BME280;62813;51.424;6.762;2023-01-04T02:33:30;101725.75;;;7.80;94.16
9009;BME280;62813;51.424;6.762;2023-01-04T02:36:10;101718.84;;;7.80;94.47
9009;BME280;62813;51.424;6.762;2023-01-04T02:39:02;101715.38;;;7.81;94.69
9009;BME280;62813;51.424;6.762;2023-01-04T02:44:12;101717.13;;;7.82;95.26
9009;BME280;62813;51.424;6.762;2023-01-04T02:47:03;101717.06;;;7.85;95.24
9009;BME280;62813;51.424;6.762;2023-01-04T02:49:31;101716.22;;;7.83;95.27
9009;BME280;62813;51.424;6.762;2023-01-04T02:52:17;101700.66;;;7.86;95.01
9009;BME280;62813;51.424;6.762;2023-01-04T02:54:44;101693.75;;;7.87;95.41
9009;BME280;62813;51.424;6.762;2023-01-04T02:57:36;101681.69;;;7.89;95.13
9009;BME280;62813;51.424;6.762;2023-01-04T03:00:23;101694.59;;;7.91;95.44
9009;BME280;62813;51.424;6.762;2023-01-04T03:08:48;101682.44;;;7.96;95.26
9009;BME280;62813;51.424;6.762;2023-01-04T03:11:17;101676.41;;;7.95;95.30
9009;BME280;62813;51.424;6.762;2023-01-04T03:14:08;101669.50;;;7.97;95.23
9009;BME280;62813;51.424;6.762;2023-01-04T03:16:57;101657.44;;;7.98;95.32
9009;BME280;62813;51.424;6.762;2023-01-04T03:19:26;101661.72;;;7.99;95.63
9009;BME280;62813;51.424;6.762;2023-01-04T03:22:13;101656.47;;;8.02;95.43
9009;BME280;62813;51.424;6.762;2023-01-04T03:25:03;101645.25;;;8.04;95.58
9009;BME280;62813;51.424;6.762;2023-01-04T03:27:52;101637.41;;;8.09;95.10
9009;BME280;62813;51.424;6.762;2023-01-04T03:30:47;101640.84;;;8.11;95.19
9009;BME280;62813;51.424;6.762;2023-01-04T03:33:35;101639.91;;;8.15;95.50
9009;BME280;62813;51.424;6.762;2023-01-04T03:36:51;101635.50;;;8.20;94.86
9009;BME280;62813;51.424;6.762;2023-01-04T03:42:34;101626.69;;;8.30;95.11
9009;BME280;62813;51.424;6.762;2023-01-04T03:45:32;101624.84;;;8.38;95.17
9009;BME280;62813;51.424;6.762;2023-01-04T03:48:26;101626.38;;;8.49;94.10
9009;BME280;62813;51.424;6.762;2023-01-04T03:53:24;101612.41;;;8.57;94.07
9009;BME280;62813;51.424;6.762;2023-01-04T03:55:53;101613.25;;;8.59;94.25
9009;BME280;62813;51.424;6.762;2023-01-04T03:58:21;101607.16;;;8.62;94.45
9009;BME280;62813;51.424;6.762;2023-01-04T04:00:48;101603.69;;;8.63;94.65
9009;BME280;62813;51.424;6.762;2023-01-04T04:03:15;101591.50;;;8.68;94.48
9009;BME280;62813;51.424;6.762;2023-01-04T04:05:42;101575.13;;;8.67;94.51
9009;BME280;62813;51.424;6.762;2023-01-04T04:08:28;101586.34;;;8.68;94.74
9009;BME280;62813;51.424;6.762;2023-01-04T04:11:00;101571.66;;;8.68;94.62
9009;BME280;62813;51.424;6.762;2023-01-04T04:13:46;101575.09;;;8.69;94.53
9009;BME280;62813;51.424;6.762;2023-01-04T04:16:14;101570.72;;;8.71;94.83
9009;BME280;62813;51.424;6.762;2023-01-04T04:18:41;101567.25;;;8.72;94.75
9009;BME280;62813;51.424;6.762;2023-01-04T04:21:08;101567.25;;;8.74;94.84
9009;BME280;62813;51.424;6.762;2023-01-04T04:23:34;101568.09;;;8.74;94.79
9009;BME280;62813;51.424;6.762;2023-01-04T04:26:01;101562.03;;;8.75;94.34
9009;BME280;62813;51.424;6.762;2023-01-04T04:28:27;101566.28;;;8.78;94.49
9009;BME280;62813;51.424;6.762;2023-01-04T04:30:54;101566.25;;;8.79;94.42
9009;BME280;62813;51.424;6.762;2023-01-04T04:33:20;101561.06;;;8.79;94.74
9009;BME280;62813;51.424;6.762;2023-01-04T04:35:51;101568.75;;;8.84;94.73
9009;BME280;62813;51.424;6.762;2023-01-04T04:38:18;101568.66;;;8.88;94.59
9009;BME280;62813;51.424;6.762;2023-01-04T04:40:45;101560.88;;;8.90;94.82
9009;BME280;62813;51.424;6.762;2023-01-04T04:43:32;101554.75;;;8.92;94.27
9009;BME280;62813;51.424;6.762;2023-01-04T04:45:58;101552.13;;;8.95;94.38
9009;BME280;62813;51.424;6.762;2023-01-04T04:48:25;101541.69;;;8.99;93.84
9009;BME280;62813;51.424;6.762;2023-01-04T04:50:52;101537.31;;;9.01;93.91
9009;BME280;62813;51.424;6.762;2023-01-04T04:53:19;101547.63;;;9.04;93.60
9009;BME280;62813;51.424;6.762;2023-01-04T04:55:45;101533.78;;;9.05;93.65
9009;BME280;62813;51.424;6.762;2023-01-04T04:58:12;101537.19;;;9.08;93.60
9009;BME280;62813;51.424;6.762;2023-01-04T05:00:41;101528.47;;;9.12;93.72
9009;BME280;62813;51.424;6.762;2023-01-04T05:03:08;101530.97;;;9.17;93.64
9009;BME280;62813;51.424;6.762;2023-01-04T05:05:35;101530.06;;;9.18;93.18
9009;BME280;62813;51.424;6.762;2023-01-04T05:08:02;101530.94;;;9.18;93.50
9009;BME280;62813;51.424;6.762;2023-01-04T05:10:28;101523.97;;;9.20;93.23
9009;BME280;62813;51.424;6.762;2023-01-04T05:12:55;101519.56;;;9.24;93.29
9009;BME280;62813;51.424;6.762;2023-01-04T05:15:31;101514.41;;;9.24;93.29
9009;BME280;62813;51.424;6.762;2023-01-04T05:17:59;101511.75;;;9.26;93.11
9009;BME280;62813;51.424;6.762;2023-01-04T05:20:25;101515.16;;;9.28;92.77
9009;BME280;62813;51.424;6.762;2023-01-04T05:22:52;101520.25;;;9.32;92.33
9009;BME280;62813;51.424;6.762;2023-01-04T05:25:19;101509.75;;;9.37;92.21
9009;BME280;62813;51.424;6.762;2023-01-04T05:27:45;101513.09;;;9.42;91.68
9009;BME280;62813;51.424;6.762;2023-01-04T05:30:13;101519.06;;;9.45;91.51
9009;BME280;62813;51.424;6.762;2023-01-04T05:32:59;101512.94;;;9.48;90.92
9009;BME280;62813;51.424;6.762;2023-01-04T05:35:27;101508.56;;;9.50;91.09
9009;BME280;62813;51.424;6.762;2023-01-04T05:37:53;101517.19;;;9.50;91.37
9009;BME280;62813;51.424;6.762;2023-01-04T05:40:20;101501.66;;;9.50;91.36
9009;BME280;62813;51.424;6.762;2023-01-04T05:42:47;101475.72;;;9.50;91.46
9009;BME280;62813;51.424;6.762;2023-01-04T05:45:14;101498.94;;;9.55;90.70
9009;BME280;62813;51.424;6.762;2023-01-04T05:47:41;101498.09;;;9.55;91.04
9009;BME280;62813;51.424;6.762;2023-01-04T05:50:09;101487.66;;;9.58;90.98
9009;BME280;62813;51.424;6.762;2023-01-04T05:52:36;101484.16;;;9.60;90.87
9009;BME280;62813;51.424;6.762;2023-01-04T05:55:03;101478.91;;;9.62;90.76
9009;BME280;62813;51.424;6.762;2023-01-04T05:57:29;101480.66;;;9.61;91.16
9009;BME280;62813;51.424;6.762;2023-01-04T05:59:56;101471.03;;;9.66;90.75
9009;BME280;62813;51.424;6.762;2023-01-04T06:02:26;101472.69;;;9.69;90.50
9009;BME280;62813;51.424;6.762;2023-01-04T06:04:53;101470.00;;;9.72;90.43
9009;BME280;62813;51.424;6.762;2023-01-04T06:07:25;101459.56;;;9.75;90.25
9009;BME280;62813;51.424;6.762;2023-01-04T06:09:52;101454.34;;;9.76;90.66
9009;BME280;62813;51.424;6.762;2023-01-04T06:12:19;101442.97;;;9.82;89.89
9009;BME280;62813;51.424;6.762;2023-01-04T06:14:46;101447.25;;;9.83;89.94
9009;BME280;62813;51.424;6.762;2023-01-04T06:17:12;101457.63;;;9.83;89.55
9009;BME280;62813;51.424;6.762;2023-01-04T06:19:39;101448.94;;;9.84;89.77
9009;BME280;62813;51.424;6.762;2023-01-04T06:22:06;101445.56;;;9.82;90.30
9009;BME280;62813;51.424;6.762;2023-01-04T06:24:33;101439.56;;;9.80;90.39
9009;BME280;62813;51.424;6.762;2023-01-04T06:27:00;101419.63;;;9.82;90.22
9009;BME280;62813;51.424;6.762;2023-01-04T06:29:27;101438.50;;;9.87;90.16
9009;BME280;62813;51.424;6.762;2023-01-04T06:31:54;101437.69;;;9.85;90.21
9009;BME280;62813;51.424;6.762;2023-01-04T06:34:21;101438.50;;;9.87;90.85
9009;BME280;62813;51.424;6.762;2023-01-04T06:36:55;101433.22;;;9.90;90.52
9009;BME280;62813;51.424;6.762;2023-01-04T06:39:22;101440.13;;;9.91;90.53
9009;BME280;62813;51.424;6.762;2023-01-04T06:41:49;101450.41;;;9.94;90.49
9009;BME280;62813;51.424;6.762;2023-01-04T06:44:15;101457.34;;;9.94;90.09
9009;BME280;62813;51.424;6.762;2023-01-04T06:46:42;101438.34;;;9.93;90.14
9009;BME280;62813;51.424;6.762;2023-01-04T06:49:09;101438.25;;;9.96;90.27
9009;BME280;62813;51.424;6.762;2023-01-04T06:51:35;101439.94;;;9.97;89.99
9009;BME280;62813;51.424;6.762;2023-01-04T06:54:02;101452.03;;;9.98;89.81
9009;BME280;62813;51.424;6.762;2023-01-04T06:56:28;101447.72;;;9.97;89.77
9009;BME280;62813;51.424;6.762;2023-01-04T06:58:57;101438.94;;;10.03;89.76
9009;BME280;62813;51.424;6.762;2023-01-04T07:01:24;101438.09;;;10.02;90.04
9009;BME280;62813;51.424;6.762;2023-01-04T07:03:51;101430.34;;;10.01;89.98
9009;BME280;62813;51.424;6.762;2023-01-04T07:06:17;101439.72;;;10.05;89.69
9009;BME280;62813;51.424;6.762;2023-01-04T07:08:44;101433.63;;;10.08;89.56
9009;BME280;62813;51.424;6.762;2023-01-04T07:11:10;101431.03;;;10.08;89.92
9009;BME280;62813;51.424;6.762;2023-01-04T07:13:37;101426.72;;;10.06;89.94
9009;BME280;62813;51.424;6.762;2023-01-04T07:16:03;101436.28;;;10.04;90.23
9009;BME280;62813;51.424;6.762;2023-01-04T07:18:30;101435.34;;;10.09;90.47
9009;BME280;62813;51.424;6.762;2023-01-04T07:20:56;101431.84;;;10.10;90.54
9009;BME280;62813;51.424;6.762;2023-01-04T07:23:23;101419.72;;;10.10;90.41
9009;BME280;62813;51.424;6.762;2023-01-04T07:25:50;101421.38;;;10.13;90.42
9009;BME280;62813;51.424;6.762;2023-01-04T07:28:16;101423.09;;;10.12;90.51
9009;BME280;62813;51.424;6.762;2023-01-04T07:31:05;101433.41;;;10.15;90.41
9009;BME280;62813;51.424;6.762;2023-01-04T07:33:32;101433.41;;;10.15;90.81
9009;BME280;62813;51.424;6.762;2023-01-04T07:36:05;101433.09;;;10.26;90.69
9009;BME280;62813;51.424;6.762;2023-01-04T07:38:34;101429.47;;;10.31;90.35
9009;BME280;62813;51.424;6.762;2023-01-04T07:41:01;101432.81;;;10.37;90.00
9009;BME280;62813;51.424;6.762;2023-01-04T07:43:28;101418.88;;;10.39;89.74
9009;BME280;62813;51.424;6.762;2023-01-04T07:45:54;101414.59;;;10.38;89.55
9009;BME280;62813;51.424;6.762;2023-01-04T07:48:21;101418.81;;;10.41;89.83
9009;BME280;62813;51.424;6.762;2023-01-04T07:50:48;101426.53;;;10.44;89.42
9009;BME280;62813;51.424;6.762;2023-01-04T07:53:15;101409.28;;;10.41;89.36
9009;BME280;62813;51.424;6.762;2023-01-04T07:55:42;101408.44;;;10.41;89.31
9009;BME280;62813;51.424;6.762;2023-01-04T07:58:08;101397.13;;;10.43;89.75
9009;BME280;62813;51.424;6.762;2023-01-04T08:00:35;101414.31;;;10.47;89.78
9009;BME280;62813;51.424;6.762;2023-01-04T08:03:01;101411.75;;;10.46;89.21
9009;BME280;62813;51.424;6.762;2023-01-04T08:05:31;101423.66;;;10.53;89.10
9009;BME280;62813;51.424;6.762;2023-01-04T08:07:58;101415.03;;;10.52;89.35
9009;BME280;62813;51.424;6.762;2023-01-04T08:10:25;101414.22;;;10.50;89.36
9009;BME280;62813;51.424;6.762;2023-01-04T08:12:51;101403.75;;;10.53;89.26
9009;BME280;62813;51.424;6.762;2023-01-04T08:15:18;101397.75;;;10.51;89.32
9009;BME280;62813;51.424;6.762;2023-01-04T08:17:44;101414.00;;;10.56;89.35
9009;BME280;62813;51.424;6.762;2023-01-04T08:20:11;101402.84;;;10.54;89.09
9009;BME280;62813;51.424;6.762;2023-01-04T08:22:38;101396.75;;;10.55;88.80
9009;BME280;62813;51.424;6.762;2023-01-04T08:25:05;101393.16;;;10.59;88.97
9009;BME280;62813;51.424;6.762;2023-01-04T08:27:32;101384.47;;;10.60;89.19
9009;BME280;62813;51.424;6.762;2023-01-04T08:29:59;101375.78;;;10.61;88.85
9009;BME280;62813;51.424;6.762;2023-01-04T08:32:25;101390.56;;;10.59;88.87
9009;BME280;62813;51.424;6.762;2023-01-04T08:34:52;101380.13;;;10.61;88.69
9009;BME280;62813;51.424;6.762;2023-01-04T08:37:19;101388.72;;;10.63;88.56
9009;BME280;62813;51.424;6.762;2023-01-04T08:39:46;101378.19;;;10.68;88.57
9009;BME280;62813;51.424;6.762;2023-01-04T08:42:15;101372.09;;;10.69;88.60
9009;BME280;62813;51.424;6.762;2023-01-04T08:44:56;101366.91;;;10.69;88.26
9009;BME280;62813;51.424;6.762;2023-01-04T08:47:26;101378.06;;;10.72;88.60
9009;BME280;62813;51.424;6.762;2023-01-04T08:49:53;101376.31;;;10.73;88.43
9009;BME280;62813;51.424;6.762;2023-01-04T08:52:20;101347.75;;;10.73;88.66
9009;BME280;62813;51.424;6.762;2023-01-04T08:54:47;101375.41;;;10.74;88.91
9009;BME280;62813;51.424;6.762;2023-01-04T08:57:15;101376.31;;;10.73;89.24
9009;BME280;62813;51.424;6.762;2023-01-04T08:59:43;101376.25;;;10.74;89.28
9009;BME280;62813;51.424;6.762;2023-01-04T09:02:19;101386.66;;;10.74;88.92
9009;BME280;62813;51.424;6.762;2023-01-04T09:04:47;101378.91;;;10.73;89.72
9009;BME280;62813;51.424;6.762;2023-01-04T09:07:14;101378.06;;;10.72;89.19
9009;BME280;62813;51.424;6.762;2023-01-04T09:09:41;101361.53;;;10.75;89.85
9009;BME280;62813;51.424;6.762;2023-01-04T09:12:08;101360.69;;;10.74;89.66
9009;BME280;62813;51.424;6.762;2023-01-04T09:14:35;101371.13;;;10.73;89.93
9009;BME280;62813;51.424;6.762;2023-01-04T09:17:01;101354.69;;;10.72;90.15
9009;BME280;62813;51.424;6.762;2023-01-04T09:19:28;101344.38;;;10.71;90.13
9009;BME280;62813;51.424;6.762;2023-01-04T09:21:54;101344.25;;;10.74;90.42
9009;BME280;62813;51.424;6.762;2023-01-04T09:24:21;101357.19;;;10.75;90.15
9009;BME280;62813;51.424;6.762;2023-01-04T09:26:48;101366.72;;;10.75;90.36
9009;BME280;62813;51.424;6.762;2023-01-04T09:29:20;101369.31;;;10.75;91.69
9009;BME280;62813;51.424;6.762;2023-01-04T09:31:46;101365.16;;;10.71;91.43
9009;BME280;62813;51.424;6.762;2023-01-04T09:34:13;101359.06;;;10.70;91.79
9009;BME280;62813;51.424;6.762;2023-01-04T09:36:44;101357.34;;;10.71;91.33
9009;BME280;62813;51.424;6.762;2023-01-04T09:39:12;101353.16;;;10.67;91.74
9009;BME280;62813;51.424;6.762;2023-01-04T09:41:59;101361.72;;;10.69;91.01
9009;BME280;62813;51.424;6.762;2023-01-04T09:50:15;101364.91;;;10.77;90.92
9009;BME280;62813;51.424;6.762;2023-01-04T09:55:28;101380.38;;;10.81;90.64
9009;BME280;62813;51.424;6.762;2023-01-04T09:58:26;101379.53;;;10.81;90.69
9009;BME280;62813;51.424;6.762;2023-01-04T10:03:32;101362.97;;;10.85;90.56
9009;BME280;62813;51.424;6.762;2023-01-04T10:06:00;101374.22;;;10.84;90.97
9009;BME280;62813;51.424;6.762;2023-01-04T10:08:27;101366.41;;;10.85;90.69
9009;BME280;62813;51.424;6.762;2023-01-04T10:19:15;101369.00;;;10.85;91.01
9009;BME280;62813;51.424;6.762;2023-01-04T10:22:36;101366.34;;;10.87;91.20
9009;BME280;62813;51.424;6.762;2023-01-04T10:25:29;101364.47;;;10.91;91.71
9009;BME280;62813;51.424;6.762;2023-01-04T10:31:01;101356.69;;;10.91;91.62
9009;BME280;62813;51.424;6.762;2023-01-04T10:36:27;101341.16;;;10.89;91.87
9009;BME280;62813;51.424;6.762;2023-01-04T10:39:04;101348.00;;;10.92;91.90
9009;BME280;62813;51.424;6.762;2023-01-04T10:41:40;101337.59;;;10.93;91.82
9009;BME280;62813;51.424;6.762;2023-01-04T10:46:52;101337.34;;;11.01;91.89
9009;BME280;62813;51.424;6.762;2023-01-04T10:49:43;101311.31;;;11.02;92.16
9009;BME280;62813;51.424;6.762;2023-01-04T10:55:13;101315.59;;;11.03;92.44
9009;BME280;62813;51.424;6.762;2023-01-04T11:00:16;101312.09;;;11.04;92.47
9009;BME280;62813;51.424;6.762;2023-01-04T11:03:06;101314.63;;;11.07;92.44
9009;BME280;62813;51.424;6.762;2023-01-04T11:05:42;101302.53;;;11.06;92.36
9009;BME280;62813;51.424;6.762;2023-01-04T11:08:19;101297.28;;;11.08;91.91
9009;BME280;62813;51.424;6.762;2023-01-04T11:10:54;101301.63;;;11.07;92.45
9009;BME280;62813;51.424;6.762;2023-01-04T11:13:25;101278.06;;;11.12;92.48
9009;BME280;62813;51.424;6.762;2023-01-04T11:15:51;101287.59;;;11.13;92.04
9009;BME280;62813;51.424;6.762;2023-01-04T11:18:18;101286.72;;;11.12;92.44
9009;BME280;62813;51.424;6.762;2023-01-04T11:20:45;101303.13;;;11.14;92.42
9009;BME280;62813;51.424;6.762;2023-01-04T11:23:14;101291.75;;;11.17;92.53
9009;BME280;62813;51.424;6.762;2023-01-04T11:25:47;101289.06;;;11.20;92.45
9009;BME280;62813;51.424;6.762;2023-01-04T11:31:43;101285.59;;;11.20;92.34
9009;BME280;62813;51.424;6.762;2023-01-04T11:34:12;101276.91;;;11.21;92.19
9009;BME280;62813;51.424;6.762;2023-01-04T11:36:44;101272.56;;;11.21;92.29
9009;BME280;62813;51.424;6.762;2023-01-04T11:39:22;101279.34;;;11.25;92.13
9009;BME280;62813;51.424;6.762;2023-01-04T11:44:28;101265.44;;;11.26;91.74
9009;BME280;62813;51.424;6.762;2023-01-04T11:47:27;101270.69;;;11.25;92.37
9009;BME280;62813;51.424;6.762;2023-01-04T11:49:58;101263.66;;;11.28;91.89
9009;BME280;62813;51.424;6.762;2023-01-04T11:52:33;101262.81;;;11.28;91.96
9009;BME280;62813;51.424;6.762;2023-01-04T11:55:24;101269.63;;;11.30;91.71
9009;BME280;62813;51.424;6.762;2023-01-04T12:00:33;101266.13;;;11.31;91.90
9009;BME280;62813;51.424;6.762;2023-01-04T12:03:11;101261.00;;;11.30;92.75
9009;BME280;62813;51.424;6.762;2023-01-04T12:05:38;101264.56;;;11.27;93.71
9009;BME280;62813;51.424;6.762;2023-01-04T12:08:05;101258.56;;;11.25;94.53
9009;BME280;62813;51.424;6.762;2023-01-04T12:10:32;101250.94;;;11.21;95.04
9009;BME280;62813;51.424;6.762;2023-01-04T12:13:00;101252.72;;;11.19;95.22
9009;BME280;62813;51.424;6.762;2023-01-04T12:15:42;101256.22;;;11.18;95.54
9009;BME280;62813;51.424;6.762;2023-01-04T12:18:15;101260.63;;;11.15;95.65
9009;BME280;62813;51.424;6.762;2023-01-04T12:20:44;101247.66;;;11.15;96.17
9009;BME280;62813;51.424;6.762;2023-01-04T12:23:12;101256.22;;;11.18;96.03
9009;BME280;62813;51.424;6.762;2023-01-04T12:25:49;101253.69;;;11.16;96.66
9009;BME280;62813;51.424;6.762;2023-01-04T12:28:37;101252.72;;;11.19;96.16
9009;BME280;62813;51.424;6.762;2023-01-04T12:33:52;101247.59;;;11.17;96.22
9009;BME280;62813;51.424;6.762;2023-01-04T12:50:03;101221.66;;;11.15;96.96
9009;BME280;62813;51.424;6.762;2023-01-04T12:52:34;101219.97;;;11.14;96.91
9009;BME280;62813;51.424;6.762;2023-01-04T12:57:50;101231.16;;;11.17;97.12
9009;BME280;62813;51.424;6.762;2023-01-04T13:00:16;101232.06;;;11.15;97.31
9009;BME280;62813;51.424;6.762;2023-01-04T13:02:45;101224.25;;;11.15;97.15
9009;BME280;62813;51.424;6.762;2023-01-04T13:08:10;101218.78;;;11.23;96.80
9009;BME280;62813;51.424;6.762;2023-01-04T13:10:54;101225.63;;;11.26;96.38
9009;BME280;62813;51.424;6.762;2023-01-04T13:13:47;101216.81;;;11.30;95.81
9009;BME280;62813;51.424;6.762;2023-01-04T13:19:00;101226.09;;;11.37;95.92
9009;BME280;62813;51.424;6.762;2023-01-04T13:21:31;101229.69;;;11.33;96.36
9009;BME280;62813;51.424;6.762;2023-01-04T13:24:26;101234.78;;;11.36;96.17
9009;BME280;62813;51.424;6.762;2023-01-04T13:26:54;101222.56;;;11.38;96.33
9009;BME280;62813;51.424;6.762;2023-01-04T13:39:37;101206.63;;;11.47;95.83
9009;BME280;62813;51.424;6.762;2023-01-04T13:42:11;101217.03;;;11.47;96.05
9009;BME280;62813;51.424;6.762;2023-01-04T13:47:51;101221.22;;;11.51;95.97
9009;BME280;62813;51.424;6.762;2023-01-04T13:50:38;101196.06;;;11.52;95.69
9009;BME280;62813;51.424;6.762;2023-01-04T13:53:22;101216.03;;;11.51;95.72
9009;BME280;62813;51.424;6.762;2023-01-04T13:55:51;101217.66;;;11.54;95.61
9009;BME280;62813;51.424;6.762;2023-01-04T13:58:20;101206.19;;;11.59;95.33
9009;BME280;62813;51.424;6.762;2023-01-04T14:03:40;101206.19;;;11.59;95.75
9009;BME280;62813;51.424;6.762;2023-01-04T14:08:49;101208.78;;;11.59;95.83
9009;BME280;62813;51.424;6.762;2023-01-04T14:18:20;101204.59;;;11.55;96.80
9009;BME280;62813;51.424;6.762;2023-01-04T14:28:24;101192.78;;;11.47;97.57
9009;BME280;62813;51.424;6.762;2023-01-04T14:33:26;101194.44;;;11.49;98.30
9009;BME280;62813;51.424;6.762;2023-01-04T14:38:44;101194.53;;;11.46;98.53
9009;BME280;62813;51.424;6.762;2023-01-04T14:41:18;101197.22;;;11.45;98.11
9009;BME280;62813;51.424;6.762;2023-01-04T14:44:04;101209.41;;;11.42;98.84
9009;BME280;62813;51.424;6.762;2023-01-04T14:46:33;101188.00;;;11.36;99.70
9009;BME280;62813;51.424;6.762;2023-01-04T14:49:00;101204.44;;;11.36;99.73
9009;BME280;62813;51.424;6.762;2023-01-04T14:51:36;101185.34;;;11.37;99.58
9009;BME280;62813;51.424;6.762;2023-01-04T14:54:05;101195.63;;;11.40;100.00
9009;BME280;62813;51.424;6.762;2023-01-04T14:56:32;101177.47;;;11.39;100.00
9009;BME280;62813;51.424;6.762;2023-01-04T14:58:59;101178.31;;;11.39;99.91
9009;BME280;62813;51.424;6.762;2023-01-04T15:01:26;101193.84;;;11.41;100.00
9009;BME280;62813;51.424;6.762;2023-01-04T15:03:53;101188.50;;;11.46;100.00
9009;BME280;62813;51.424;6.762;2023-01-04T15:06:19;101181.63;;;11.45;100.00
9009;BME280;62813;51.424;6.762;2023-01-04T15:08:46;101193.75;;;11.44;100.00
9009;BME280;62813;51.424;6.762;2023-01-04T15:11:14;101196.22;;;11.47;99.90
9009;BME280;62813;51.424;6.762;2023-01-04T15:13:41;101199.66;;;11.49;99.96
9009;BME280;62813;51.424;6.762;2023-01-04T15:16:11;101190.94;;;11.50;99.56
9009;BME280;62813;51.424;6.762;2023-01-04T15:18:39;101196.00;;;11.53;99.28
9009;BME280;62813;51.424;6.762;2023-01-04T15:21:05;101196.00;;;11.53;99.37
9009;BME280;62813;51.424;6.762;2023-01-04T15:23:32;101194.19;;;11.55;99.12
9009;BME280;62813;51.424;6.762;2023-01-04T15:25:59;101196.69;;;11.58;98.58
9009;BME280;62813;51.424;6.762;2023-01-04T15:28:28;101210.53;;;11.59;98.68
9009;BME280;62813;51.424;6.762;2023-01-04T15:30:55;101204.59;;;11.55;98.32
9009;BME280;62813;51.424;6.762;2023-01-04T15:33:22;101211.44;;;11.58;98.33
9009;BME280;62813;51.424;6.762;2023-01-04T15:35:57;101188.13;;;11.56;98.18
9009;BME280;62813;51.424;6.762;2023-01-04T15:38:24;101187.19;;;11.57;97.76
9009;BME280;62813;51.424;6.762;2023-01-04T15:40:51;101192.47;;;11.56;97.45